createdAt,value
2018-12-25T00:02:18.550Z,0.20
2018-12-25T00:04:47.886Z,0.20
2018-12-25T00:07:17.149Z,0.20
2018-12-25T00:09:46.466Z,0.10
2018-12-25T00:12:22.285Z,0.20
2018-12-25T00:14:51.536Z,0.30
2018-12-25T00:17:24.002Z,0.30
2018-12-25T00:19:56.351Z,0.30
2018-12-25T00:22:25.885Z,0.20
2018-12-25T00:24:55.756Z,0.00
2018-12-25T00:27:25.158Z,0.00
2018-12-25T00:29:54.818Z,0.00
2018-12-25T00:32:24.159Z,0.00
2018-12-25T00:34:56.665Z,0.00
2018-12-25T00:37:26.326Z,0.10
2018-12-25T00:39:55.991Z,0.00
2018-12-25T00:42:25.343Z,0.00
2018-12-25T00:44:54.620Z,-0.10
2018-12-25T00:47:24.764Z,-0.40
2018-12-25T00:49:54.234Z,-0.50
2018-12-25T00:52:26.838Z,-0.50
2018-12-25T00:54:56.473Z,-0.60
2018-12-25T00:57:29.611Z,-0.70
2018-12-25T00:59:58.852Z,-0.70
2018-12-25T01:02:28.509Z,-0.50
2018-12-25T01:04:59.020Z,-0.50
2018-12-25T01:07:28.381Z,-0.60
2018-12-25T01:10:01.120Z,-0.50
2018-12-25T01:12:30.431Z,-0.60
2018-12-25T01:15:04.412Z,-0.60
2018-12-25T01:17:33.867Z,-0.70
2018-12-25T01:20:03.218Z,-0.80
2018-12-25T01:22:32.833Z,-0.80
2018-12-25T01:25:02.179Z,-0.80
2018-12-25T01:27:34.731Z,-0.90
2018-12-25T01:30:04.085Z,-0.90
2018-12-25T01:32:33.343Z,-1.00
2018-12-25T01:35:02.571Z,-1.00
2018-12-25T01:37:31.831Z,-1.00
2018-12-25T01:40:01.167Z,-1.00
2018-12-25T01:42:30.526Z,-0.90
2018-12-25T01:44:59.850Z,-1.00
2018-12-25T01:47:32.003Z,-1.00
2018-12-25T01:50:01.391Z,-1.00
2018-12-25T01:52:30.701Z,-0.90
2018-12-25T01:55:02.819Z,-0.80
2018-12-25T01:57:32.118Z,-0.80
2018-12-25T02:00:01.382Z,-1.00
2018-12-25T02:02:30.659Z,-0.90
2018-12-25T02:05:05.864Z,-0.90
2018-12-25T02:07:35.413Z,-0.80
2018-12-25T02:10:07.979Z,-0.80
2018-12-25T02:12:37.250Z,-0.80
2018-12-25T02:15:06.711Z,-0.90
2018-12-25T02:17:38.430Z,-0.90
2018-12-25T02:20:07.524Z,-1.00
2018-12-25T02:22:40.014Z,-1.00
2018-12-25T02:25:12.793Z,-1.00
2018-12-25T02:27:46.991Z,-1.00
2018-12-25T02:30:19.391Z,-0.90
2018-12-25T02:32:54.971Z,-0.90
2018-12-25T02:35:27.226Z,-1.00
2018-12-25T02:37:57.667Z,-1.00
2018-12-25T02:40:34.022Z,-1.00
2018-12-25T02:43:03.653Z,-0.90
2018-12-25T02:45:35.890Z,-0.80
2018-12-25T02:48:06.771Z,-0.70
2018-12-25T02:50:39.342Z,-0.60
2018-12-25T02:53:10.454Z,-0.60
2018-12-25T02:55:39.763Z,-0.60
2018-12-25T02:58:14.905Z,-0.60
2018-12-25T03:00:46.519Z,-0.50
2018-12-25T03:03:22.222Z,-0.40
2018-12-25T03:05:55.281Z,-0.40
2018-12-25T03:08:24.513Z,-0.60
2018-12-25T03:10:53.945Z,-0.60
2018-12-25T03:13:23.192Z,-0.50
2018-12-25T03:15:52.432Z,-0.50
2018-12-25T03:18:21.671Z,-0.40
2018-12-25T03:20:51.089Z,-0.30
2018-12-25T03:23:23.794Z,-0.30
2018-12-25T03:25:53.165Z,-0.30
2018-12-25T03:28:25.163Z,-0.30
2018-12-25T03:30:54.717Z,-0.20
2018-12-25T03:33:24.055Z,-0.10
2018-12-25T03:35:53.370Z,-0.10
2018-12-25T03:38:25.521Z,0.00
2018-12-25T03:40:57.579Z,0.00
2018-12-25T03:43:26.851Z,0.10
2018-12-25T03:46:02.058Z,0.20
2018-12-25T03:48:32.016Z,0.20
2018-12-25T03:51:07.463Z,0.20
2018-12-25T03:53:36.692Z,0.20
2018-12-25T03:56:06.195Z,0.30
2018-12-25T03:58:39.937Z,0.40
2018-12-25T04:01:13.207Z,0.40
2018-12-25T04:03:42.451Z,0.40
2018-12-25T04:06:13.789Z,0.40
2018-12-25T04:08:43.080Z,0.30
2018-12-25T04:11:12.939Z,0.30
2018-12-25T04:13:45.383Z,0.20
2018-12-25T04:16:14.743Z,0.30
2018-12-25T04:18:46.845Z,0.40
2018-12-25T04:21:16.083Z,0.40
2018-12-25T04:23:49.786Z,0.60
2018-12-25T04:26:19.368Z,0.60
2018-12-25T04:28:49.837Z,0.60
2018-12-25T04:31:23.089Z,0.70
2018-12-25T04:33:55.500Z,0.50
2018-12-25T04:36:24.901Z,0.60
2018-12-25T04:38:54.307Z,0.60
2018-12-25T04:41:30.009Z,0.50
2018-12-25T04:43:59.309Z,0.40
2018-12-25T04:46:31.537Z,0.60
2018-12-25T04:49:03.697Z,0.60
2018-12-25T04:51:33.021Z,0.70
2018-12-25T04:54:02.570Z,0.80
2018-12-25T04:56:35.245Z,0.70
2018-12-25T04:59:04.849Z,0.80
2018-12-25T05:01:34.114Z,0.60
2018-12-25T05:04:06.512Z,0.40
2018-12-25T05:06:39.616Z,0.40
2018-12-25T05:09:12.007Z,0.50
2018-12-25T05:11:41.225Z,0.60
2018-12-25T05:14:13.764Z,0.60
2018-12-25T05:16:46.071Z,0.60
2018-12-25T05:19:15.409Z,0.70
2018-12-25T05:21:44.723Z,0.80
2018-12-25T05:24:14.753Z,0.70
2018-12-25T05:26:48.484Z,0.80
2018-12-25T05:29:18.061Z,0.90
2018-12-25T05:31:47.360Z,0.90
2018-12-25T05:34:17.192Z,0.80
2018-12-25T05:36:46.437Z,0.90
2018-12-25T05:39:22.741Z,0.80
2018-12-25T05:41:55.162Z,0.80
2018-12-25T05:44:25.737Z,0.90
2018-12-25T05:46:55.042Z,0.90
2018-12-25T05:49:24.268Z,0.80
2018-12-25T05:51:59.240Z,0.80
2018-12-25T05:54:28.805Z,0.80
2018-12-25T05:56:58.068Z,0.80
2018-12-25T05:59:27.594Z,0.80
2018-12-25T06:01:56.913Z,0.80
2018-12-25T06:04:26.137Z,0.80
2018-12-25T06:06:55.703Z,0.90
2018-12-25T06:09:25.169Z,1.00
2018-12-25T06:11:54.484Z,1.00
2018-12-25T06:14:27.653Z,0.90
2018-12-25T06:17:03.247Z,0.80
2018-12-25T06:19:32.578Z,0.90
2018-12-25T06:22:04.915Z,0.90
2018-12-25T06:24:40.498Z,0.90
2018-12-25T06:27:09.751Z,0.90
2018-12-25T06:29:38.980Z,0.90
2018-12-25T06:32:08.322Z,1.00
2018-12-25T06:34:40.944Z,1.00
2018-12-25T06:37:11.809Z,1.10
2018-12-25T06:39:44.564Z,1.30
2018-12-25T06:42:16.653Z,1.40
2018-12-25T06:44:49.169Z,1.40
2018-12-25T06:47:18.418Z,1.30
2018-12-25T06:49:47.737Z,1.10
2018-12-25T06:52:23.114Z,1.10
2018-12-25T06:54:52.590Z,1.10
2018-12-25T06:57:23.102Z,1.00
2018-12-25T06:59:58.306Z,1.10
2018-12-25T07:02:29.401Z,1.30
2018-12-25T07:04:58.714Z,1.20
2018-12-25T07:07:30.814Z,1.30
2018-12-25T07:10:02.861Z,1.30
2018-12-25T07:12:41.307Z,1.10
2018-12-25T07:15:10.920Z,1.20
2018-12-25T07:17:43.477Z,1.20
2018-12-25T07:20:12.797Z,1.10
2018-12-25T07:22:45.249Z,1.10
2018-12-25T07:25:17.785Z,1.00
2018-12-25T07:27:47.093Z,1.20
2018-12-25T07:30:16.770Z,1.10
2018-12-25T07:32:46.517Z,1.00
2018-12-25T07:35:17.925Z,1.10
2018-12-25T07:37:57.592Z,1.10
2018-12-25T07:40:26.801Z,1.10
2018-12-25T07:42:56.152Z,1.10
2018-12-25T07:45:32.822Z,1.10
2018-12-25T07:48:02.551Z,1.00
2018-12-25T07:50:32.157Z,1.00
2018-12-25T07:53:01.378Z,1.00
2018-12-25T07:55:34.042Z,1.00
2018-12-25T07:58:03.297Z,1.10
2018-12-25T08:00:32.543Z,1.10
2018-12-25T08:03:01.869Z,1.20
2018-12-25T08:05:34.131Z,1.20
2018-12-25T08:08:03.749Z,1.30
2018-12-25T08:10:33.327Z,1.40
2018-12-25T08:13:02.587Z,1.40
2018-12-25T08:15:33.097Z,1.40
2018-12-25T08:18:14.526Z,1.50
2018-12-25T08:20:46.162Z,1.50
2018-12-25T08:23:18.299Z,1.30
2018-12-25T08:25:48.430Z,1.40
2018-12-25T08:28:19.361Z,1.40
2018-12-25T08:30:51.482Z,1.30
2018-12-25T08:33:22.524Z,1.30
2018-12-25T08:35:51.933Z,1.40
2018-12-25T08:38:24.083Z,1.30
2018-12-25T08:40:59.536Z,1.30
2018-12-25T08:43:29.366Z,1.50
2018-12-25T08:46:02.003Z,1.70
2018-12-25T08:48:34.045Z,1.70
2018-12-25T08:51:03.293Z,2.00
2018-12-25T08:53:32.905Z,2.00
2018-12-25T08:56:02.228Z,2.00
2018-12-25T08:58:31.497Z,2.00
2018-12-25T09:01:00.810Z,2.20
2018-12-25T09:03:30.041Z,2.20
2018-12-25T09:05:59.279Z,2.20
2018-12-25T09:08:35.026Z,2.10
2018-12-25T09:11:05.711Z,2.00
2018-12-25T09:13:36.616Z,1.90
2018-12-25T09:16:06.179Z,1.90
2018-12-25T09:18:38.277Z,2.10
2018-12-25T09:21:08.888Z,2.10
2018-12-25T09:23:38.878Z,2.00
2018-12-25T09:26:10.289Z,1.90
2018-12-25T09:28:39.939Z,2.00
2018-12-25T09:31:09.285Z,2.20
2018-12-25T09:33:49.479Z,2.30
2018-12-25T09:36:19.388Z,2.30
2018-12-25T09:39:01.188Z,2.20
2018-12-25T09:42:09.480Z,2.40
2018-12-25T09:44:39.054Z,2.50
2018-12-25T09:47:18.482Z,2.70
2018-12-25T09:49:54.288Z,2.80
2018-12-25T09:52:23.590Z,2.90
2018-12-25T09:54:59.075Z,2.90
2018-12-25T09:57:31.053Z,2.80
2018-12-25T10:00:45.402Z,3.00
2018-12-25T10:10:25.550Z,3.20
2018-12-25T10:13:00.418Z,3.10
2018-12-25T10:15:32.903Z,3.20
2018-12-25T10:18:03.511Z,3.30
2018-12-25T10:20:35.984Z,3.50
2018-12-25T10:23:05.469Z,3.60
2018-12-25T10:25:34.952Z,3.50
2018-12-25T10:28:04.302Z,3.40
2018-12-25T10:30:33.803Z,3.60
2018-12-25T10:33:03.419Z,3.70
2018-12-25T10:35:41.799Z,3.70
2018-12-25T10:38:12.952Z,3.90
2018-12-25T10:40:43.418Z,3.90
2018-12-25T10:43:19.290Z,3.90
2018-12-25T10:45:50.821Z,3.70
2018-12-25T10:48:20.124Z,4.00
2018-12-25T10:50:50.117Z,4.10
2018-12-25T10:53:19.516Z,4.00
2018-12-25T10:55:51.963Z,4.30
2018-12-25T10:58:26.067Z,4.60
2018-12-25T11:01:00.498Z,4.40
2018-12-25T11:03:29.805Z,4.40
2018-12-25T11:05:59.113Z,4.40
2018-12-25T11:08:31.439Z,4.50
2018-12-25T11:11:01.038Z,4.50
2018-12-25T11:13:31.762Z,4.40
2018-12-25T11:16:01.027Z,4.50
2018-12-25T11:18:33.716Z,4.40
2018-12-25T11:21:22.986Z,4.40
2018-12-25T11:23:52.232Z,4.50
2018-12-25T11:26:23.122Z,4.60
2018-12-25T11:28:56.817Z,4.90
2018-12-25T11:31:28.869Z,4.90
2018-12-25T11:34:07.009Z,5.20
2018-12-25T11:36:39.110Z,5.40
2018-12-25T11:39:08.552Z,5.20
2018-12-25T11:41:38.175Z,5.10
2018-12-25T11:44:07.579Z,5.10
2018-12-25T11:46:40.272Z,5.10
2018-12-25T11:49:12.665Z,4.90
2018-12-25T11:51:43.038Z,5.00
2018-12-25T11:54:12.255Z,4.60
2018-12-25T11:56:41.577Z,4.40
2018-12-25T11:59:11.302Z,4.50
2018-12-25T12:01:40.543Z,4.30
2018-12-25T12:04:09.868Z,4.20
2018-12-25T12:06:47.793Z,4.30
2018-12-25T12:09:17.890Z,4.10
2018-12-25T12:11:50.207Z,4.30
2018-12-25T12:14:21.416Z,4.50
2018-12-25T12:16:50.458Z,4.70
2018-12-25T12:19:19.800Z,4.90
2018-12-25T12:21:54.386Z,5.30
2018-12-25T12:24:28.655Z,5.40
2018-12-25T12:26:57.629Z,5.50
2018-12-25T12:29:27.161Z,5.50
2018-12-25T12:31:58.129Z,5.60
2018-12-25T12:34:27.419Z,5.60
2018-12-25T12:36:56.713Z,5.70
2018-12-25T12:39:26.005Z,5.70
2018-12-25T12:42:07.282Z,6.40
2018-12-25T12:44:36.535Z,7.10
2018-12-25T12:47:05.875Z,7.90
2018-12-25T12:49:35.245Z,8.80
2018-12-25T12:52:04.568Z,9.30
2018-12-25T12:54:33.819Z,9.70
2018-12-25T12:57:09.178Z,9.60
2018-12-25T12:59:44.406Z,9.00
2018-12-25T13:02:13.974Z,8.80
2018-12-25T13:04:43.218Z,8.70
2018-12-25T13:07:15.534Z,8.30
2018-12-25T13:09:48.077Z,8.40
2018-12-25T13:12:17.479Z,7.20
2018-12-25T13:14:48.459Z,6.80
2018-12-25T13:17:21.016Z,6.70
2018-12-25T13:20:03.801Z,6.00
2018-12-25T13:22:30.601Z,5.80
2018-12-25T13:24:59.939Z,5.80
2018-12-25T13:27:37.483Z,5.50
2018-12-25T13:30:08.874Z,5.40
2018-12-25T13:32:38.417Z,5.40
2018-12-25T13:35:13.803Z,5.40
2018-12-25T13:37:43.390Z,5.30
2018-12-25T13:40:12.684Z,5.30
2018-12-25T13:42:44.936Z,4.80
2018-12-25T13:45:14.180Z,4.70
2018-12-25T13:47:46.523Z,4.40
2018-12-25T13:50:56.923Z,4.40
2018-12-25T13:53:25.913Z,4.40
2018-12-25T13:55:54.721Z,4.40
2018-12-25T13:58:23.561Z,4.60
2018-12-25T14:01:01.419Z,4.50
2018-12-25T14:03:33.432Z,4.40
2018-12-25T14:06:02.264Z,4.50
2018-12-25T14:08:34.121Z,4.50
2018-12-25T14:11:02.945Z,4.70
2018-12-25T14:13:31.734Z,4.50
2018-12-25T14:16:02.189Z,4.40
2018-12-25T14:18:31.016Z,4.30
2018-12-25T14:21:02.916Z,4.30
2018-12-25T14:23:31.736Z,4.40
2018-12-25T14:26:03.678Z,4.40
2018-12-25T14:28:33.089Z,4.50
2018-12-25T14:31:01.923Z,4.50
2018-12-25T14:33:30.712Z,4.40
2018-12-25T14:36:11.640Z,4.50
2018-12-25T14:38:45.068Z,4.40
2018-12-25T14:41:20.306Z,4.50
2018-12-25T14:43:50.759Z,4.30
2018-12-25T14:46:19.922Z,4.40
2018-12-25T14:48:53.090Z,4.50
2018-12-25T14:51:21.913Z,4.10
2018-12-25T14:53:57.165Z,4.10
2018-12-25T14:56:25.981Z,4.10
2018-12-25T14:58:55.527Z,4.10
2018-12-25T15:01:26.034Z,3.90
2018-12-25T15:03:58.132Z,4.00
2018-12-25T15:06:26.939Z,3.90
2018-12-25T15:08:58.854Z,4.00
2018-12-25T15:11:35.115Z,4.00
2018-12-25T15:14:04.045Z,4.00
2018-12-25T15:16:38.970Z,4.10
2018-12-25T15:19:08.285Z,3.90
2018-12-25T15:21:38.369Z,3.90
2018-12-25T15:24:07.173Z,3.70
2018-12-25T15:26:36.094Z,3.70
2018-12-25T15:29:04.967Z,3.50
2018-12-25T15:31:33.773Z,3.60
2018-12-25T15:34:03.049Z,3.60
2018-12-25T15:36:31.990Z,3.50
2018-12-25T15:39:07.628Z,3.50
2018-12-25T15:41:36.487Z,3.40
2018-12-25T15:44:05.515Z,3.50
2018-12-25T15:46:34.913Z,3.60
2018-12-25T15:49:03.761Z,3.50
2018-12-25T15:51:35.652Z,3.30
2018-12-25T15:54:07.664Z,3.40
2018-12-25T15:56:37.921Z,3.50
2018-12-25T15:59:06.821Z,3.60
2018-12-25T16:01:35.645Z,3.50
2018-12-25T16:04:04.520Z,3.60
2018-12-25T16:06:33.409Z,3.60
2018-12-25T16:09:02.217Z,3.30
2018-12-25T16:11:43.274Z,3.40
2018-12-25T16:14:15.210Z,3.60
2018-12-25T16:16:47.154Z,3.60
2018-12-25T16:19:16.036Z,3.50
2018-12-25T16:21:44.933Z,3.40
2018-12-25T16:24:13.821Z,3.40
2018-12-25T16:26:43.111Z,3.40
2018-12-25T16:29:11.940Z,3.40
2018-12-25T16:31:41.131Z,3.40
2018-12-25T16:34:12.978Z,3.30
2018-12-25T16:36:42.082Z,3.30
2018-12-25T16:39:10.984Z,3.40
2018-12-25T16:41:42.961Z,3.30
2018-12-25T16:44:18.439Z,3.20
2018-12-25T16:46:47.598Z,3.20
2018-12-25T16:49:16.635Z,3.30
2018-12-25T16:51:45.763Z,3.30
2018-12-25T16:54:14.779Z,3.20
2018-12-25T16:56:53.136Z,3.30
2018-12-25T16:59:22.153Z,3.20
2018-12-25T17:01:51.224Z,3.00
2018-12-25T17:04:20.285Z,3.20
2018-12-25T17:06:52.321Z,3.20
2018-12-25T17:09:40.071Z,3.20
2018-12-25T17:12:21.388Z,3.30
2018-12-25T17:14:54.870Z,3.30
2018-12-25T17:17:24.316Z,3.10
2018-12-25T17:19:56.764Z,3.20
2018-12-25T17:22:49.300Z,3.30
2018-12-25T17:25:21.526Z,3.20
2018-12-25T17:27:54.102Z,3.30
2018-12-25T17:30:27.072Z,3.30
2018-12-25T17:33:00.160Z,3.20
2018-12-25T17:35:33.769Z,3.10
2018-12-25T17:38:06.313Z,3.20
2018-12-25T17:41:26.891Z,3.10
2018-12-25T17:44:07.308Z,3.10
2018-12-25T17:47:10.640Z,3.00
2018-12-25T17:50:13.461Z,2.90
2018-12-25T17:52:49.007Z,2.90
2018-12-25T17:55:22.710Z,3.00
2018-12-25T17:57:59.873Z,3.00
2018-12-25T18:00:36.495Z,2.90
2018-12-25T18:03:06.131Z,2.90
2018-12-25T18:05:44.950Z,2.80
2018-12-25T18:08:14.424Z,2.80
2018-12-25T18:10:47.544Z,2.90
2018-12-25T18:13:27.481Z,2.80
2018-12-25T18:16:04.053Z,2.80
2018-12-25T18:18:34.870Z,2.80
2018-12-25T18:21:04.240Z,2.60
2018-12-25T18:23:33.592Z,2.50
2018-12-25T18:26:02.861Z,2.50
2018-12-25T18:28:32.354Z,2.60
2018-12-25T18:31:41.321Z,2.40
2018-12-25T18:34:32.601Z,2.30
2018-12-25T18:37:02.822Z,2.20
2018-12-25T18:39:32.142Z,1.70
2018-12-25T18:42:14.503Z,1.60
2018-12-25T18:44:59.786Z,1.60
2018-12-25T18:47:29.353Z,1.60
2018-12-25T18:49:59.400Z,1.40
2018-12-25T18:52:35.916Z,1.50
2018-12-25T18:55:05.770Z,1.60
2018-12-25T18:57:41.520Z,1.60
2018-12-25T19:00:11.825Z,1.60
2018-12-25T19:05:48.326Z,1.70
2018-12-25T19:08:17.893Z,1.80
2018-12-25T19:10:46.779Z,1.80
2018-12-25T19:13:15.717Z,1.90
2018-12-25T19:15:46.688Z,2.00
2018-12-25T19:18:24.607Z,2.10
2018-12-25T19:20:53.979Z,2.10
2018-12-25T19:32:43.582Z,2.20
2018-12-25T19:35:25.884Z,2.10
2018-12-25T19:38:01.218Z,2.10
2018-12-25T19:58:18.137Z,2.10
2018-12-25T20:48:29.420Z,0.50
2018-12-25T20:51:35.978Z,0.50
2018-12-25T20:58:04.493Z,0.40
2018-12-25T21:04:57.023Z,0.40
2018-12-25T21:15:15.007Z,0.40
2018-12-25T21:18:52.925Z,0.20
2018-12-25T21:25:40.164Z,0.20
2018-12-25T21:28:37.766Z,0.20
2018-12-25T21:31:33.459Z,0.10
2018-12-25T22:20:14.032Z,0.00
2018-12-25T22:26:14.105Z,-0.20
2018-12-25T22:29:31.332Z,-0.40
2018-12-25T22:32:40.292Z,-0.40
2018-12-25T22:35:44.120Z,-0.40
2018-12-25T22:38:08.140Z,-0.40
2018-12-25T22:41:09.506Z,-0.50
2018-12-25T22:54:34.790Z,-0.90
2018-12-25T22:57:04.296Z,-0.90
2018-12-25T22:59:37.487Z,-0.90
2018-12-25T23:05:26.747Z,-0.70
2018-12-25T23:11:15.517Z,-0.70
2018-12-25T23:13:48.565Z,-0.70
2018-12-25T23:16:24.283Z,-0.70
2018-12-25T23:19:36.448Z,-0.70
2018-12-25T23:22:15.206Z,-0.80
2018-12-25T23:24:44.877Z,-0.80
2018-12-25T23:27:34.474Z,-0.80
2018-12-25T23:30:15.867Z,-0.80
2018-12-25T23:36:34.552Z,-0.90
2018-12-25T23:39:06.230Z,-0.90
2018-12-25T23:41:38.688Z,-0.90
2018-12-25T23:44:09.022Z,-0.90
2018-12-25T23:47:05.561Z,-1.00
2018-12-25T23:49:46.182Z,-0.90
2018-12-25T23:52:21.594Z,-0.90
2018-12-25T23:54:58.935Z,-0.90
2018-12-25T23:57:47.703Z,-0.90
